Flight Track Log - Related Links

Times and Time Zones

All times are in EDT time to prevent confusion due to time zone crossing. See the QLK109D flight status page for this flight to view local times or setup timezone preferences in your user account.


Time Position Orientation Groundspeed Altitude Reporting Facility
EDT Latitude Longitude Course Direction KTS MPH feet Rate Location/Type
Fri 11:34:21 PM -30.3595 153.0791 211° Southwest 22,000  Level Aus ATC (Calculated)
Fri 11:34:33 PM -30.3595 153.0791 211° Southwest 22,000 -4,873 Level Aus ATC (Calculated)
Fri 11:35:00 PM -30.3595 153.0791 211° Southwest 22,000 -5,255 Level Aus ATC (Calculated)
Fri 11:36:00 PM -30.4538 153.0030 215° Southwest  Level FlightAware Approximate
Fri 11:36:33 PM -30.5015 152.9646 43° Northeast 22,000  Level Aus ATC (Calculated)
Fri 11:37:06 PM -30.4634 153.0052 215° Southwest 233 268 8,600 -10,676 Descending Aus ATC (RADAR)
Fri 11:37:41 PM -30.4899 152.9808 218° Southwest 208 239 9,900 1,920 Climbing Aus ATC (RADAR)
Fri 11:38:21 PM -30.5266 152.9530 213° Southwest 232 267 11,000 1,760 Climbing Aus ATC (RADAR)
Fri 11:38:56 PM -30.5623 152.9268 212° Southwest 254 292 12,100 1,714 Climbing Aus ATC (RADAR)
Fri 11:39:31 PM -30.5963 152.8963 218° Southwest 266 306 13,000 1,543 Climbing Aus ATC (RADAR)
Fri 11:40:06 PM -30.6348 152.8663 214° Southwest 281 323 13,900 1,714 Climbing Aus ATC (RADAR)
Fri 11:40:41 PM -30.6750 152.8362 213° Southwest 293 337 15,000 1,650 Climbing Aus ATC (RADAR)
Fri 11:41:26 PM -30.7223 152.7944 217° Southwest 290 334 16,100 1,520 Climbing Aus ATC (RADAR)
Fri 11:41:56 PM -30.7560 152.7671 215° Southwest 294 338 16,900 1,477 Climbing Aus ATC (RADAR)
Fri 11:42:31 PM -30.7950 152.7349 215° Southwest 296 341 17,700 1,360 Climbing Aus ATC (RADAR)
Fri 11:43:11 PM -30.8400 152.6971 216° Southwest 300 345 18,600 1,378 Climbing Aus ATC (RADAR)
Fri 11:43:45 PM -30.8802 152.6643 215° Southwest 304 350 19,400 1,391 Climbing Aus ATC (RADAR)
Fri 11:44:20 PM -30.9204 152.6319 215° Southwest 302 348 20,200 1,114 Climbing Aus ATC (RADAR)
Fri 11:44:55 PM -30.9606 152.5984 215° Southwest 305 351 20,700 943 Climbing Aus ATC (RADAR)
Fri 11:45:30 PM -31.0019 152.5650 215° Southwest 309 356 21,300 1,067 Climbing Aus ATC (RADAR)
Fri 11:46:25 PM -31.0672 152.5111 215° Southwest 314 361 22,300 880 Climbing Aus ATC (RADAR)
Fri 11:46:45 PM -31.0899 152.4908 217° Southwest 314 361 22,400 133 Climbing Aus ATC (RADAR)
Fri 11:47:10 PM -31.1213 152.4648 215° Southwest 328 377 22,400  Level Aus ATC (RADAR)
Fri 11:47:45 PM -31.1666 152.4277 215° Southwest 341 392 22,400  Level Aus ATC (RADAR)
Fri 11:48:30 PM -31.2266 152.3781 215° Southwest 352 405 22,400  Level Aus ATC (RADAR)
Fri 11:49:05 PM -31.2734 152.3389 216° Southwest 357 411 22,400  Level Aus ATC (RADAR)
Fri 11:49:40 PM -31.3209 152.2994 215° Southwest 359 413 22,400  Level Aus ATC (RADAR)
Fri 11:50:15 PM -31.3686 152.2596 215° Southwest 363 418 22,400  Level Aus ATC (RADAR)
Fri 11:50:50 PM -31.4159 152.2198 216° Southwest 361 415 22,400  Level Aus ATC (RADAR)
Fri 11:51:40 PM -31.4843 152.1635 215° Southwest 363 418 22,400  Level Aus ATC (RADAR)
Fri 11:52:05 PM -31.5182 152.1352 215° Southwest 361 415 22,400  Level Aus ATC (RADAR)
Fri 11:52:40 PM -31.5659 152.0954 215° Southwest 361 415 22,400  Level Aus ATC (RADAR)
Fri 11:53:25 PM -31.6267 152.0438 216° Southwest 363 418 22,400  Level Aus ATC (RADAR)
Fri 11:53:59 PM -31.6743 152.0043 215° Southwest 361 415 22,400  Level Aus ATC (RADAR)
Fri 11:54:34 PM -31.7216 151.9636 216° Southwest 363 418 22,400 -87 Level Aus ATC (RADAR)
Fri 11:55:08 PM -31.7668 151.9255 216° Southwest 357 411 22,300  Descending Aus ATC (RADAR)
Fri 11:55:39 PM -31.8106 151.8890 215° Southwest 365 420 22,400 70 Climbing Aus ATC (RADAR)
Fri 11:56:34 PM -31.8864 151.8246 216° Southwest 369 425 22,400  Level Aus ATC (RADAR)
Fri 11:56:59 PM -31.9249 151.8036 205° Southwest 368 423 22,400  Level Aus ATC (RADAR)
Fri 11:57:33 PM -31.9775 151.7819 199° South 363 418 22,400  Level Aus ATC (RADAR)
Fri 11:58:19 PM -32.0525 151.7494 200° South 368 423 22,400  Level Aus ATC (RADAR)
Fri 11:58:54 PM -32.1081 151.7238 201° Southwest 368 423 22,400  Level Aus ATC (RADAR)
Fri 11:59:48 PM -32.1927 151.6853 201° Southwest 367 422 22,400  Level Aus ATC (RADAR)
Sat 12:00:03 AM -32.2165 151.6743 201° Southwest 366 421 22,400  Level Aus ATC (RADAR)
Sat 12:00:39 AM -32.2757 151.6473 201° Southwest 370 426 22,400  Level Aus ATC (RADAR)
Sat 12:01:54 AM -32.3962 151.5920 201° Southwest 371 427 22,400  Level Aus ATC (RADAR)
Sat 12:02:09 AM -32.4204 151.5808 201° Southwest 373 429 22,400  Level Aus ATC (RADAR)
Sat 12:02:54 AM -32.4930 151.5473 201° Southwest 374 430 22,400  Level Aus ATC (RADAR)
Sat 12:03:29 AM -32.5498 151.5214 201° Southwest 375 432 22,400  Level Aus ATC (RADAR)
Sat 12:04:02 AM -32.6036 151.4966 201° Southwest 373 429 22,400  Level Aus ATC (RADAR)
Sat 12:04:33 AM -32.6549 151.4725 202° Southwest 374 430 22,400  Level Aus ATC (RADAR)
Sat 12:05:08 AM -32.7116 151.4464 201° Southwest 375 432 22,400  Level Aus ATC (RADAR)
Sat 12:05:43 AM -32.7682 151.4205 201° Southwest 372 428 22,400 -174 Level Aus ATC (RADAR)
Sat 12:06:17 AM -32.8217 151.3958 201° Southwest 370 426 22,200 -1,200 Descending Aus ATC (RADAR)
Sat 12:06:53 AM -32.8794 151.3670 203° Southwest 364 419 21,000 -1,875 Descending Aus ATC (RADAR)
Sat 12:07:37 AM -32.9480 151.3365 200° South 366 421 19,700 -1,826 Descending Aus ATC (RADAR)
Sat 12:08:02 AM -32.9881 151.3184 201° Southwest 369 425 18,900 -1,900 Descending Aus ATC (RADAR)
Sat 12:08:37 AM -33.0455 151.2926 201° Southwest 377 434 17,800 -1,852 Descending Aus ATC (RADAR)
Sat 12:09:23 AM -33.1201 151.2567 202° Southwest 368 423 16,400 -1,671 Descending Aus ATC (RADAR)
Sat 12:09:56 AM -33.1712 151.2329 201° Southwest 355 409 15,600 -1,385 Descending Aus ATC (RADAR)
Sat 12:10:41 AM -33.2413 151.2180 190° South 339 390 14,600 -1,333 Descending Aus ATC (RADAR)
Sat 12:11:08 AM -33.2837 151.2172 181° South 337 388 14,000 -1,333 Descending Aus ATC (RADAR)
Sat 12:12:11 AM -33.3839 151.2128 182° South 341 392 12,600 -1,364 Descending Aus ATC (RADAR)
Sat 12:12:36 AM -33.4235 151.2101 183° South 337 388 12,000 -1,607 Descending Aus ATC (RADAR)
Sat 12:13:07 AM -33.4698 151.2070 183° South 316 364 11,100 -1,500 Descending Aus ATC (RADAR)
Sat 12:13:56 AM -33.5396 151.2032 183° South 308 354 10,000 -1,286 Descending Aus ATC (RADAR)
Sat 12:14:31 AM -33.5869 151.2003 183° South 292 336 9,300 -825 Descending Aus ATC (RADAR)
Sat 12:15:16 AM -33.6458 151.1985 181° South 282 325 8,900 -514 Descending Aus ATC (RADAR)
Sat 12:15:41 AM -33.6766 151.2066 168° South 272 313 8,700 -300 Descending Aus ATC (RADAR)
Sat 12:16:16 AM -33.7190 151.2197 166° South 270 311 8,600 -297 Descending Aus ATC (RADAR)
Sat 12:17:22 AM -33.7976 151.2441 166° South 255 293 8,200 -396 Descending Aus ATC (RADAR)
Sat 12:17:47 AM -33.8269 151.2531 166° South 256 295 8,000 -600 Descending Aus ATC (RADAR)
Sat 12:18:22 AM -33.8680 151.2673 164° South 256 295 7,600 -600 Descending Aus ATC (RADAR)
Sat 12:19:07 AM -33.9198 151.2870 162° South 253 291 7,200 -600 Descending Aus ATC (RADAR)
Sat 12:19:42 AM -33.9600 151.3023 163° South 251 289 6,800 -675 Descending Aus ATC (RADAR)
Sat 12:20:27 AM -34.0129 151.3142 169° South 253 291 6,300 -857 Descending Aus ATC (RADAR)
Sat 12:20:52 AM -34.0427 151.3192 172° South 253 291 5,800 -1,300 Descending Aus ATC (RADAR)
Sat 12:21:27 AM -34.0842 151.3263 172° South 248 285 5,000 -1,214 Descending Aus ATC (RADAR)
Sat 12:22:16 AM -34.1333 151.3058 199° South 237 273 4,100 -1,135 Descending Aus ATC (RADAR)
Sat 12:22:41 AM -34.1392 151.2744 257° West 230 265 3,600 -1,300 Descending Aus ATC (RADAR)
Sat 12:23:16 AM -34.1175 151.2400 307° West 222 255 2,800 -987 Descending Aus ATC (RADAR)
Sat 12:24:00 AM -34.0817 151.2202 335° Northwest 195 224 2,300 -911 Descending Aus ATC (RADAR)
Sat 12:24:35 AM -34.0517 151.2142 350° North 189 217 1,600 -1,029 Descending Aus ATC (RADAR)
Sat 12:25:10 AM -34.0258 151.2079 349° North 158 182 1,100 -761 Descending Aus ATC (RADAR)
Sat 12:25:46 AM -34.0037 151.2025 349° North 131 151 700 -686 Descending Aus ATC (RADAR)
Sat 12:26:20 AM -33.9849 151.1976 348° North 125 144 300 -706 Descending Aus ATC (RADAR)

Login

Don't have an account? Register now (free) for customized features, flight alerts, and more!